Terminal Aerodrome Forecast
Issued by NWS

Home | Current Version | Previous Version | Text Only | Print | Product List | Glossary On
Versions: 1 2 3 4 5 6 7 8 9 10 11 12 13 14 15 16 17
000
FTUS42 TJSJ 222300 RRA
TAFIST
TAF
TIST 222340Z 2300/2324 08012KT P6SM FEW025
     FM231600 08014G23KT P6SM VCSH FEW025 SCT070
     FM232300 09011KT P6SM FEW025=

USA.gov is the U.S. government's official web portal to all federal, state and local government web resources and services.